sensor_id;sensor_type;location;lat;lon;timestamp;P1;durP1;ratioP1;P2;durP2;ratioP2
67544;SDS011;54380;47.770;11.150;2024-03-29T00:01:50;7.63;;;1.38;;
67544;SDS011;54380;47.770;11.150;2024-03-29T00:04:16;8.20;;;1.20;;
67544;SDS011;54380;47.770;11.150;2024-03-29T00:06:42;9.98;;;1.35;;
67544;SDS011;54380;47.770;11.150;2024-03-29T00:09:08;7.78;;;1.20;;
67544;SDS011;54380;47.770;11.150;2024-03-29T00:11:33;8.88;;;1.75;;
67544;SDS011;54380;47.770;11.150;2024-03-29T00:13:59;9.07;;;2.05;;
67544;SDS011;54380;47.770;11.150;2024-03-29T00:16:27;6.95;;;1.35;;
67544;SDS011;54380;47.770;11.150;2024-03-29T00:18:52;6.88;;;1.13;;
67544;SDS011;54380;47.770;11.150;2024-03-29T00:21:18;7.22;;;1.00;;
67544;SDS011;54380;47.770;11.150;2024-03-29T00:23:44;7.82;;;0.88;;
67544;SDS011;54380;47.770;11.150;2024-03-29T00:26:10;5.20;;;0.50;;
67544;SDS011;54380;47.770;11.150;2024-03-29T00:28:36;5.75;;;1.23;;
67544;SDS011;54380;47.770;11.150;2024-03-29T00:31:02;3.15;;;0.40;;
67544;SDS011;54380;47.770;11.150;2024-03-29T00:33:30;4.13;;;0.60;;
67544;SDS011;54380;47.770;11.150;2024-03-29T00:35:56;3.97;;;0.40;;
67544;SDS011;54380;47.770;11.150;2024-03-29T00:38:22;3.88;;;0.63;;
67544;SDS011;54380;47.770;11.150;2024-03-29T00:40:47;3.95;;;0.60;;
67544;SDS011;54380;47.770;11.150;2024-03-29T00:43:13;1.50;;;0.30;;
67544;SDS011;54380;47.770;11.150;2024-03-29T00:45:39;1.55;;;0.30;;
67544;SDS011;54380;47.770;11.150;2024-03-29T00:48:05;4.35;;;1.02;;
67544;SDS011;54380;47.770;11.150;2024-03-29T00:50:33;6.63;;;0.65;;
67544;SDS011;54380;47.770;11.150;2024-03-29T00:52:59;5.18;;;1.02;;
67544;SDS011;54380;47.770;11.150;2024-03-29T00:55:25;6.65;;;0.80;;
67544;SDS011;54380;47.770;11.150;2024-03-29T00:57:51;2.00;;;0.30;;
67544;SDS011;54380;47.770;11.150;2024-03-29T01:00:17;7.53;;;0.47;;
67544;SDS011;54380;47.770;11.150;2024-03-29T01:02:43;2.72;;;0.38;;
67544;SDS011;54380;47.770;11.150;2024-03-29T01:05:08;1.67;;;0.30;;
67544;SDS011;54380;47.770;11.150;2024-03-29T01:07:35;2.03;;;0.40;;
67544;SDS011;54380;47.770;11.150;2024-03-29T01:10:01;2.15;;;0.30;;
67544;SDS011;54380;47.770;11.150;2024-03-29T01:12:28;1.73;;;0.30;;
67544;SDS011;54380;47.770;11.150;2024-03-29T01:14:53;1.95;;;0.30;;
67544;SDS011;54380;47.770;11.150;2024-03-29T01:17:19;2.72;;;0.30;;
67544;SDS011;54380;47.770;11.150;2024-03-29T01:19:45;2.95;;;0.40;;
67544;SDS011;54380;47.770;11.150;2024-03-29T01:22:11;1.90;;;0.30;;
67544;SDS011;54380;47.770;11.150;2024-03-29T01:24:38;2.13;;;0.40;;
67544;SDS011;54380;47.770;11.150;2024-03-29T01:27:04;1.70;;;0.30;;
67544;SDS011;54380;47.770;11.150;2024-03-29T01:29:32;1.05;;;0.20;;
67544;SDS011;54380;47.770;11.150;2024-03-29T01:31:57;1.45;;;0.30;;
67544;SDS011;54380;47.770;11.150;2024-03-29T01:34:23;2.80;;;0.40;;
67544;SDS011;54380;47.770;11.150;2024-03-29T01:36:49;1.83;;;0.30;;
67544;SDS011;54380;47.770;11.150;2024-03-29T01:39:15;2.00;;;0.40;;
67544;SDS011;54380;47.770;11.150;2024-03-29T01:41:45;1.20;;;0.30;;
67544;SDS011;54380;47.770;11.150;2024-03-29T01:44:11;0.88;;;0.20;;
67544;SDS011;54380;47.770;11.150;2024-03-29T01:46:36;1.23;;;0.20;;
67544;SDS011;54380;47.770;11.150;2024-03-29T01:49:03;1.60;;;0.20;;
67544;SDS011;54380;47.770;11.150;2024-03-29T01:51:30;1.27;;;0.20;;
67544;SDS011;54380;47.770;11.150;2024-03-29T01:53:56;0.70;;;0.20;;
67544;SDS011;54380;47.770;11.150;2024-03-29T01:56:22;3.35;;;0.20;;
67544;SDS011;54380;47.770;11.150;2024-03-29T01:58:50;1.60;;;0.25;;
67544;SDS011;54380;47.770;11.150;2024-03-29T02:01:19;0.60;;;0.13;;
67544;SDS011;54380;47.770;11.150;2024-03-29T02:03:45;0.60;;;0.20;;
67544;SDS011;54380;47.770;11.150;2024-03-29T02:06:12;0.45;;;0.13;;
67544;SDS011;54380;47.770;11.150;2024-03-29T02:08:39;3.53;;;0.60;;
67544;SDS011;54380;47.770;11.150;2024-03-29T02:11:05;1.63;;;0.30;;
67544;SDS011;54380;47.770;11.150;2024-03-29T02:13:31;1.48;;;0.30;;
67544;SDS011;54380;47.770;11.150;2024-03-29T02:15:58;1.33;;;0.20;;
67544;SDS011;54380;47.770;11.150;2024-03-29T02:18:24;1.05;;;0.22;;
67544;SDS011;54380;47.770;11.150;2024-03-29T02:20:50;1.13;;;0.20;;
67544;SDS011;54380;47.770;11.150;2024-03-29T02:23:17;2.78;;;0.55;;
67544;SDS011;54380;47.770;11.150;2024-03-29T02:25:46;2.22;;;0.28;;
67544;SDS011;54380;47.770;11.150;2024-03-29T02:28:12;1.70;;;0.20;;
67544;SDS011;54380;47.770;11.150;2024-03-29T02:30:38;1.20;;;0.20;;
67544;SDS011;54380;47.770;11.150;2024-03-29T02:33:04;2.35;;;0.17;;
67544;SDS011;54380;47.770;11.150;2024-03-29T02:35:30;2.95;;;0.30;;
67544;SDS011;54380;47.770;11.150;2024-03-29T02:37:58;1.65;;;0.30;;
67544;SDS011;54380;47.770;11.150;2024-03-29T02:40:24;2.90;;;0.40;;
67544;SDS011;54380;47.770;11.150;2024-03-29T02:42:51;3.72;;;0.30;;
67544;SDS011;54380;47.770;11.150;2024-03-29T02:45:17;3.55;;;0.30;;
67544;SDS011;54380;47.770;11.150;2024-03-29T02:47:43;1.92;;;0.30;;
67544;SDS011;54380;47.770;11.150;2024-03-29T02:50:09;3.50;;;0.30;;
67544;SDS011;54380;47.770;11.150;2024-03-29T02:52:36;4.50;;;0.50;;
67544;SDS011;54380;47.770;11.150;2024-03-29T02:55:01;2.95;;;0.45;;
67544;SDS011;54380;47.770;11.150;2024-03-29T02:57:28;2.75;;;0.40;;
67544;SDS011;54380;47.770;11.150;2024-03-29T02:59:55;3.40;;;0.90;;
67544;SDS011;54380;47.770;11.150;2024-03-29T03:02:21;3.50;;;0.40;;
67544;SDS011;54380;47.770;11.150;2024-03-29T03:04:46;2.90;;;0.43;;
67544;SDS011;54380;47.770;11.150;2024-03-29T03:07:12;2.97;;;0.50;;
67544;SDS011;54380;47.770;11.150;2024-03-29T03:10:16;2.25;;;0.40;;
67544;SDS011;54380;47.770;11.150;2024-03-29T03:13:00;3.85;;;0.95;;
67544;SDS011;54380;47.770;11.150;2024-03-29T03:15:27;3.92;;;0.50;;
67544;SDS011;54380;47.770;11.150;2024-03-29T03:17:53;3.03;;;0.40;;
67544;SDS011;54380;47.770;11.150;2024-03-29T03:20:19;3.72;;;0.55;;
67544;SDS011;54380;47.770;11.150;2024-03-29T03:22:45;3.38;;;0.50;;
67544;SDS011;54380;47.770;11.150;2024-03-29T03:25:13;2.15;;;0.30;;
67544;SDS011;54380;47.770;11.150;2024-03-29T03:27:39;3.78;;;0.73;;
67544;SDS011;54380;47.770;11.150;2024-03-29T03:30:05;3.25;;;0.40;;
67544;SDS011;54380;47.770;11.150;2024-03-29T03:32:33;4.20;;;0.50;;
67544;SDS011;54380;47.770;11.150;2024-03-29T03:34:59;2.08;;;0.30;;
67544;SDS011;54380;47.770;11.150;2024-03-29T03:37:25;3.80;;;0.77;;
67544;SDS011;54380;47.770;11.150;2024-03-29T03:39:50;2.40;;;0.50;;
67544;SDS011;54380;47.770;11.150;2024-03-29T03:42:16;3.33;;;0.50;;
67544;SDS011;54380;47.770;11.150;2024-03-29T03:44:42;2.78;;;0.40;;
67544;SDS011;54380;47.770;11.150;2024-03-29T03:47:08;2.97;;;0.40;;
67544;SDS011;54380;47.770;11.150;2024-03-29T03:49:35;4.97;;;0.60;;
67544;SDS011;54380;47.770;11.150;2024-03-29T03:52:01;2.25;;;0.40;;
67544;SDS011;54380;47.770;11.150;2024-03-29T03:54:28;3.75;;;0.50;;
67544;SDS011;54380;47.770;11.150;2024-03-29T03:56:54;3.70;;;0.57;;
67544;SDS011;54380;47.770;11.150;2024-03-29T03:59:20;3.40;;;0.45;;
67544;SDS011;54380;47.770;11.150;2024-03-29T04:01:46;6.05;;;1.02;;
67544;SDS011;54380;47.770;11.150;2024-03-29T04:04:12;3.72;;;0.43;;
67544;SDS011;54380;47.770;11.150;2024-03-29T04:06:39;2.55;;;0.40;;
67544;SDS011;54380;47.770;11.150;2024-03-29T04:09:05;3.72;;;0.65;;
67544;SDS011;54380;47.770;11.150;2024-03-29T04:11:30;5.53;;;0.75;;
67544;SDS011;54380;47.770;11.150;2024-03-29T04:13:58;1.88;;;0.25;;
67544;SDS011;54380;47.770;11.150;2024-03-29T04:16:23;3.78;;;0.60;;
67544;SDS011;54380;47.770;11.150;2024-03-29T04:18:49;4.65;;;0.70;;
67544;SDS011;54380;47.770;11.150;2024-03-29T04:21:15;3.22;;;0.40;;
67544;SDS011;54380;47.770;11.150;2024-03-29T04:23:42;3.90;;;0.60;;
67544;SDS011;54380;47.770;11.150;2024-03-29T04:26:08;4.55;;;0.55;;
67544;SDS011;54380;47.770;11.150;2024-03-29T04:28:33;4.80;;;0.50;;
67544;SDS011;54380;47.770;11.150;2024-03-29T04:30:59;4.75;;;0.50;;
67544;SDS011;54380;47.770;11.150;2024-03-29T04:33:26;4.20;;;0.60;;
67544;SDS011;54380;47.770;11.150;2024-03-29T04:35:53;3.17;;;0.47;;
67544;SDS011;54380;47.770;11.150;2024-03-29T04:38:20;3.28;;;0.45;;
67544;SDS011;54380;47.770;11.150;2024-03-29T04:40:48;4.35;;;0.68;;
67544;SDS011;54380;47.770;11.150;2024-03-29T04:43:14;3.08;;;0.40;;
67544;SDS011;54380;47.770;11.150;2024-03-29T04:45:40;4.18;;;0.57;;
67544;SDS011;54380;47.770;11.150;2024-03-29T04:48:06;3.00;;;0.45;;
67544;SDS011;54380;47.770;11.150;2024-03-29T04:50:32;5.22;;;0.50;;
67544;SDS011;54380;47.770;11.150;2024-03-29T04:52:58;4.25;;;0.70;;
67544;SDS011;54380;47.770;11.150;2024-03-29T04:55:24;6.28;;;0.70;;
67544;SDS011;54380;47.770;11.150;2024-03-29T04:57:51;3.10;;;0.40;;
67544;SDS011;54380;47.770;11.150;2024-03-29T05:00:17;3.30;;;0.60;;
67544;SDS011;54380;47.770;11.150;2024-03-29T05:02:42;3.53;;;0.50;;
67544;SDS011;54380;47.770;11.150;2024-03-29T05:05:08;5.45;;;0.75;;
67544;SDS011;54380;47.770;11.150;2024-03-29T05:07:34;1.90;;;0.28;;
67544;SDS011;54380;47.770;11.150;2024-03-29T05:09:59;3.88;;;0.52;;
67544;SDS011;54380;47.770;11.150;2024-03-29T05:12:25;2.85;;;0.40;;
67544;SDS011;54380;47.770;11.150;2024-03-29T05:14:52;3.88;;;0.45;;
67544;SDS011;54380;47.770;11.150;2024-03-29T05:17:18;3.13;;;0.50;;
67544;SDS011;54380;47.770;11.150;2024-03-29T05:19:50;4.40;;;0.43;;
67544;SDS011;54380;47.770;11.150;2024-03-29T05:22:16;2.90;;;0.40;;
67544;SDS011;54380;47.770;11.150;2024-03-29T05:24:42;3.28;;;0.50;;
67544;SDS011;54380;47.770;11.150;2024-03-29T05:27:07;2.97;;;0.40;;
67544;SDS011;54380;47.770;11.150;2024-03-29T05:29:33;6.07;;;1.10;;
67544;SDS011;54380;47.770;11.150;2024-03-29T05:32:00;7.32;;;1.73;;
67544;SDS011;54380;47.770;11.150;2024-03-29T05:34:26;6.03;;;0.65;;
67544;SDS011;54380;47.770;11.150;2024-03-29T05:36:52;4.88;;;0.47;;
67544;SDS011;54380;47.770;11.150;2024-03-29T05:39:18;3.88;;;0.45;;
67544;SDS011;54380;47.770;11.150;2024-03-29T05:41:44;5.75;;;0.68;;
67544;SDS011;54380;47.770;11.150;2024-03-29T05:44:10;3.90;;;0.50;;
67544;SDS011;54380;47.770;11.150;2024-03-29T05:46:36;3.05;;;0.50;;
67544;SDS011;54380;47.770;11.150;2024-03-29T05:49:04;4.18;;;0.80;;
67544;SDS011;54380;47.770;11.150;2024-03-29T05:51:30;4.35;;;0.50;;
67544;SDS011;54380;47.770;11.150;2024-03-29T05:53:55;3.72;;;0.65;;
67544;SDS011;54380;47.770;11.150;2024-03-29T05:56:21;4.68;;;0.65;;
67544;SDS011;54380;47.770;11.150;2024-03-29T05:58:47;3.03;;;0.60;;
67544;SDS011;54380;47.770;11.150;2024-03-29T06:01:13;4.00;;;0.32;;
67544;SDS011;54380;47.770;11.150;2024-03-29T06:03:39;1.38;;;0.22;;
67544;SDS011;54380;47.770;11.150;2024-03-29T06:06:06;1.77;;;0.20;;
67544;SDS011;54380;47.770;11.150;2024-03-29T06:08:32;0.68;;;0.20;;
67544;SDS011;54380;47.770;11.150;2024-03-29T06:10:58;0.68;;;0.20;;
67544;SDS011;54380;47.770;11.150;2024-03-29T06:13:24;2.20;;;0.30;;
67544;SDS011;54380;47.770;11.150;2024-03-29T06:16:13;1.02;;;0.30;;
67544;SDS011;54380;47.770;11.150;2024-03-29T06:18:57;0.77;;;0.20;;
67544;SDS011;54380;47.770;11.150;2024-03-29T06:21:24;0.40;;;0.10;;
67544;SDS011;54380;47.770;11.150;2024-03-29T06:23:50;0.40;;;0.17;;
67544;SDS011;54380;47.770;11.150;2024-03-29T06:26:16;0.15;;;0.00;;
67544;SDS011;54380;47.770;11.150;2024-03-29T06:28:41;0.63;;;0.15;;
67544;SDS011;54380;47.770;11.150;2024-03-29T06:31:07;0.55;;;0.15;;
67544;SDS011;54380;47.770;11.150;2024-03-29T06:33:33;0.35;;;0.10;;
67544;SDS011;54380;47.770;11.150;2024-03-29T06:35:58;0.50;;;0.10;;
67544;SDS011;54380;47.770;11.150;2024-03-29T06:38:25;0.70;;;0.10;;
67544;SDS011;54380;47.770;11.150;2024-03-29T06:40:51;0.80;;;0.20;;
67544;SDS011;54380;47.770;11.150;2024-03-29T06:43:17;1.30;;;0.20;;
67544;SDS011;54380;47.770;11.150;2024-03-29T06:45:43;1.30;;;0.25;;
67544;SDS011;54380;47.770;11.150;2024-03-29T06:48:09;1.05;;;0.30;;
67544;SDS011;54380;47.770;11.150;2024-03-29T06:50:36;1.92;;;0.70;;
67544;SDS011;54380;47.770;11.150;2024-03-29T06:53:02;1.52;;;0.30;;
67544;SDS011;54380;47.770;11.150;2024-03-29T06:55:30;3.75;;;0.98;;
67544;SDS011;54380;47.770;11.150;2024-03-29T06:57:56;0.98;;;0.20;;
67544;SDS011;54380;47.770;11.150;2024-03-29T07:00:22;1.65;;;0.50;;
67544;SDS011;54380;47.770;11.150;2024-03-29T07:02:48;2.88;;;1.23;;
67544;SDS011;54380;47.770;11.150;2024-03-29T07:05:13;1.77;;;0.57;;
67544;SDS011;54380;47.770;11.150;2024-03-29T07:07:39;1.90;;;0.30;;
67544;SDS011;54380;47.770;11.150;2024-03-29T07:10:06;0.95;;;0.20;;
67544;SDS011;54380;47.770;11.150;2024-03-29T07:12:33;0.80;;;0.30;;
67544;SDS011;54380;47.770;11.150;2024-03-29T07:14:59;1.83;;;0.35;;
67544;SDS011;54380;47.770;11.150;2024-03-29T07:17:24;1.23;;;0.30;;
67544;SDS011;54380;47.770;11.150;2024-03-29T07:19:50;1.30;;;0.20;;
67544;SDS011;54380;47.770;11.150;2024-03-29T07:22:16;2.20;;;0.60;;
67544;SDS011;54380;47.770;11.150;2024-03-29T07:24:41;1.75;;;0.40;;
67544;SDS011;54380;47.770;11.150;2024-03-29T07:27:07;0.57;;;0.13;;
67544;SDS011;54380;47.770;11.150;2024-03-29T07:29:34;0.75;;;0.20;;
67544;SDS011;54380;47.770;11.150;2024-03-29T07:32:02;2.35;;;0.90;;
67544;SDS011;54380;47.770;11.150;2024-03-29T07:34:28;1.73;;;0.55;;
67544;SDS011;54380;47.770;11.150;2024-03-29T07:36:54;2.95;;;0.20;;
67544;SDS011;54380;47.770;11.150;2024-03-29T07:39:20;2.22;;;0.65;;
67544;SDS011;54380;47.770;11.150;2024-03-29T07:41:46;2.28;;;0.88;;
67544;SDS011;54380;47.770;11.150;2024-03-29T07:44:11;2.03;;;0.30;;
67544;SDS011;54380;47.770;11.150;2024-03-29T07:46:38;1.38;;;0.28;;
67544;SDS011;54380;47.770;11.150;2024-03-29T07:49:05;2.92;;;0.68;;
67544;SDS011;54380;47.770;11.150;2024-03-29T07:51:31;2.83;;;0.77;;
67544;SDS011;54380;47.770;11.150;2024-03-29T07:53:57;2.08;;;0.70;;
67544;SDS011;54380;47.770;11.150;2024-03-29T07:56:22;2.53;;;0.38;;
67544;SDS011;54380;47.770;11.150;2024-03-29T07:58:50;2.50;;;0.32;;
67544;SDS011;54380;47.770;11.150;2024-03-29T08:01:20;1.50;;;0.30;;
67544;SDS011;54380;47.770;11.150;2024-03-29T08:03:51;1.98;;;0.57;;
67544;SDS011;54380;47.770;11.150;2024-03-29T08:06:19;2.55;;;0.60;;
67544;SDS011;54380;47.770;11.150;2024-03-29T08:08:44;1.85;;;0.40;;
67544;SDS011;54380;47.770;11.150;2024-03-29T08:11:11;1.42;;;0.25;;
67544;SDS011;54380;47.770;11.150;2024-03-29T08:13:37;2.03;;;0.57;;
67544;SDS011;54380;47.770;11.150;2024-03-29T08:16:04;1.30;;;0.43;;
67544;SDS011;54380;47.770;11.150;2024-03-29T08:18:31;1.67;;;0.57;;
67544;SDS011;54380;47.770;11.150;2024-03-29T08:20:58;2.28;;;0.85;;
67544;SDS011;54380;47.770;11.150;2024-03-29T08:23:24;1.83;;;0.60;;
67544;SDS011;54380;47.770;11.150;2024-03-29T08:25:50;0.60;;;0.10;;
67544;SDS011;54380;47.770;11.150;2024-03-29T08:28:17;1.80;;;0.50;;
67544;SDS011;54380;47.770;11.150;2024-03-29T08:30:42;0.32;;;0.10;;
67544;SDS011;54380;47.770;11.150;2024-03-29T08:33:08;4.22;;;0.70;;
67544;SDS011;54380;47.770;11.150;2024-03-29T08:35:34;3.03;;;1.02;;
67544;SDS011;54380;47.770;11.150;2024-03-29T08:38:01;4.70;;;0.30;;
67544;SDS011;54380;47.770;11.150;2024-03-29T08:40:27;1.63;;;0.47;;
67544;SDS011;54380;47.770;11.150;2024-03-29T08:42:59;3.80;;;0.80;;
67544;SDS011;54380;47.770;11.150;2024-03-29T08:45:26;2.97;;;0.60;;
67544;SDS011;54380;47.770;11.150;2024-03-29T08:47:51;1.48;;;0.30;;
67544;SDS011;54380;47.770;11.150;2024-03-29T08:50:18;2.22;;;0.28;;
67544;SDS011;54380;47.770;11.150;2024-03-29T08:52:44;0.68;;;0.20;;
67544;SDS011;54380;47.770;11.150;2024-03-29T08:55:11;5.10;;;0.68;;
67544;SDS011;54380;47.770;11.150;2024-03-29T08:57:37;6.15;;;0.68;;
67544;SDS011;54380;47.770;11.150;2024-03-29T09:00:03;2.78;;;0.57;;
67544;SDS011;54380;47.770;11.150;2024-03-29T09:02:30;1.77;;;0.60;;
67544;SDS011;54380;47.770;11.150;2024-03-29T09:04:56;1.70;;;0.70;;
67544;SDS011;54380;47.770;11.150;2024-03-29T09:07:23;0.95;;;0.10;;
67544;SDS011;54380;47.770;11.150;2024-03-29T09:09:49;1.00;;;0.20;;
67544;SDS011;54380;47.770;11.150;2024-03-29T09:12:16;1.42;;;0.20;;
67544;SDS011;54380;47.770;11.150;2024-03-29T09:14:43;4.05;;;0.40;;
67544;SDS011;54380;47.770;11.150;2024-03-29T09:17:09;2.03;;;0.50;;
67544;SDS011;54380;47.770;11.150;2024-03-29T09:19:36;0.50;;;0.13;;
67544;SDS011;54380;47.770;11.150;2024-03-29T09:22:02;2.75;;;0.60;;
67544;SDS011;54380;47.770;11.150;2024-03-29T09:24:28;1.48;;;0.10;;
67544;SDS011;54380;47.770;11.150;2024-03-29T09:26:54;1.92;;;0.50;;
67544;SDS011;54380;47.770;11.150;2024-03-29T09:29:21;2.72;;;0.85;;
67544;SDS011;54380;47.770;11.150;2024-03-29T09:31:47;1.25;;;0.35;;
67544;SDS011;54380;47.770;11.150;2024-03-29T09:34:13;3.22;;;0.30;;
67544;SDS011;54380;47.770;11.150;2024-03-29T09:36:39;1.73;;;0.65;;
67544;SDS011;54380;47.770;11.150;2024-03-29T09:39:04;2.05;;;0.70;;
67544;SDS011;54380;47.770;11.150;2024-03-29T09:41:30;2.42;;;0.50;;
67544;SDS011;54380;47.770;11.150;2024-03-29T09:44:00;5.30;;;0.88;;
67544;SDS011;54380;47.770;11.150;2024-03-29T09:46:29;2.63;;;0.55;;
67544;SDS011;54380;47.770;11.150;2024-03-29T09:48:58;1.15;;;0.20;;
67544;SDS011;54380;47.770;11.150;2024-03-29T09:51:24;1.67;;;0.20;;
67544;SDS011;54380;47.770;11.150;2024-03-29T09:53:52;1.83;;;0.52;;
67544;SDS011;54380;47.770;11.150;2024-03-29T09:56:18;2.35;;;0.60;;
67544;SDS011;54380;47.770;11.150;2024-03-29T09:58:46;1.80;;;0.60;;
67544;SDS011;54380;47.770;11.150;2024-03-29T10:01:12;2.05;;;0.50;;
67544;SDS011;54380;47.770;11.150;2024-03-29T10:03:40;1.65;;;0.50;;
67544;SDS011;54380;47.770;11.150;2024-03-29T10:08:38;1.40;;;0.47;;
67544;SDS011;54380;47.770;11.150;2024-03-29T10:11:04;1.65;;;0.43;;
67544;SDS011;54380;47.770;11.150;2024-03-29T10:13:30;2.22;;;0.50;;
67544;SDS011;54380;47.770;11.150;2024-03-29T10:15:56;2.10;;;0.60;;
67544;SDS011;54380;47.770;11.150;2024-03-29T10:18:22;2.15;;;0.63;;
67544;SDS011;54380;47.770;11.150;2024-03-29T10:20:59;1.92;;;0.57;;
67544;SDS011;54380;47.770;11.150;2024-03-29T10:23:26;2.45;;;0.70;;
67544;SDS011;54380;47.770;11.150;2024-03-29T10:25:52;1.48;;;0.40;;
67544;SDS011;54380;47.770;11.150;2024-03-29T10:28:18;2.08;;;0.60;;
67544;SDS011;54380;47.770;11.150;2024-03-29T10:30:44;2.13;;;0.55;;
67544;SDS011;54380;47.770;11.150;2024-03-29T10:33:10;2.15;;;0.68;;
67544;SDS011;54380;47.770;11.150;2024-03-29T10:35:36;2.10;;;0.65;;
67544;SDS011;54380;47.770;11.150;2024-03-29T10:38:03;3.10;;;0.60;;
67544;SDS011;54380;47.770;11.150;2024-03-29T10:40:29;1.60;;;0.40;;
67544;SDS011;54380;47.770;11.150;2024-03-29T10:42:55;2.20;;;0.80;;
67544;SDS011;54380;47.770;11.150;2024-03-29T10:45:22;4.85;;;0.88;;
67544;SDS011;54380;47.770;11.150;2024-03-29T10:47:48;1.27;;;0.20;;
67544;SDS011;54380;47.770;11.150;2024-03-29T10:50:14;2.78;;;0.57;;
67544;SDS011;54380;47.770;11.150;2024-03-29T10:52:42;1.30;;;0.40;;
67544;SDS011;54380;47.770;11.150;2024-03-29T10:55:10;2.20;;;0.50;;
67544;SDS011;54380;47.770;11.150;2024-03-29T10:57:38;1.83;;;0.45;;
67544;SDS011;54380;47.770;11.150;2024-03-29T11:00:07;3.92;;;0.55;;
67544;SDS011;54380;47.770;11.150;2024-03-29T11:02:35;1.42;;;0.40;;
67544;SDS011;54380;47.770;11.150;2024-03-29T11:05:09;3.15;;;0.60;;
67544;SDS011;54380;47.770;11.150;2024-03-29T11:07:39;2.75;;;0.70;;
67544;SDS011;54380;47.770;11.150;2024-03-29T11:10:07;4.55;;;1.00;;
67544;SDS011;54380;47.770;11.150;2024-03-29T11:12:41;2.25;;;0.43;;
67544;SDS011;54380;47.770;11.150;2024-03-29T11:15:19;3.50;;;0.50;;
67544;SDS011;54380;47.770;11.150;2024-03-29T11:17:53;1.55;;;0.52;;
67544;SDS011;54380;47.770;11.150;2024-03-29T11:20:20;1.50;;;0.50;;
67544;SDS011;54380;47.770;11.150;2024-03-29T11:22:52;2.35;;;0.73;;
67544;SDS011;54380;47.770;11.150;2024-03-29T11:25:21;1.63;;;0.40;;
67544;SDS011;54380;47.770;11.150;2024-03-29T11:27:47;5.07;;;0.68;;
67544;SDS011;54380;47.770;11.150;2024-03-29T11:30:16;2.92;;;0.82;;
67544;SDS011;54380;47.770;11.150;2024-03-29T11:32:43;2.55;;;0.70;;
67544;SDS011;54380;47.770;11.150;2024-03-29T11:35:13;1.77;;;0.35;;
67544;SDS011;54380;47.770;11.150;2024-03-29T11:37:41;2.50;;;0.75;;
67544;SDS011;54380;47.770;11.150;2024-03-29T11:40:08;2.50;;;0.85;;
67544;SDS011;54380;47.770;11.150;2024-03-29T11:42:43;1.55;;;0.50;;
67544;SDS011;54380;47.770;11.150;2024-03-29T11:45:09;2.85;;;0.63;;
67544;SDS011;54380;47.770;11.150;2024-03-29T11:47:38;2.22;;;0.70;;
67544;SDS011;54380;47.770;11.150;2024-03-29T11:50:05;1.73;;;0.45;;
67544;SDS011;54380;47.770;11.150;2024-03-29T11:52:31;1.58;;;0.45;;
67544;SDS011;54380;47.770;11.150;2024-03-29T11:54:57;2.20;;;0.55;;
67544;SDS011;54380;47.770;11.150;2024-03-29T11:57:24;2.35;;;0.77;;
67544;SDS011;54380;47.770;11.150;2024-03-29T11:59:51;0.73;;;0.22;;
67544;SDS011;54380;47.770;11.150;2024-03-29T12:02:17;2.83;;;0.50;;
67544;SDS011;54380;47.770;11.150;2024-03-29T12:04:43;2.15;;;0.90;;
67544;SDS011;54380;47.770;11.150;2024-03-29T12:07:09;2.45;;;0.80;;
67544;SDS011;54380;47.770;11.150;2024-03-29T12:09:36;1.88;;;0.70;;
67544;SDS011;54380;47.770;11.150;2024-03-29T12:12:04;5.07;;;0.68;;
67544;SDS011;54380;47.770;11.150;2024-03-29T12:14:31;3.70;;;0.82;;
67544;SDS011;54380;47.770;11.150;2024-03-29T12:17:01;2.92;;;1.60;;
67544;SDS011;54380;47.770;11.150;2024-03-29T12:19:33;1.65;;;0.63;;
67544;SDS011;54380;47.770;11.150;2024-03-29T12:22:03;2.30;;;0.90;;
67544;SDS011;54380;47.770;11.150;2024-03-29T12:24:29;1.60;;;0.47;;
67544;SDS011;54380;47.770;11.150;2024-03-29T12:26:54;1.55;;;0.63;;
67544;SDS011;54380;47.770;11.150;2024-03-29T12:29:20;1.88;;;0.70;;
67544;SDS011;54380;47.770;11.150;2024-03-29T12:31:55;2.28;;;0.55;;
67544;SDS011;54380;47.770;11.150;2024-03-29T12:34:23;2.15;;;0.73;;
67544;SDS011;54380;47.770;11.150;2024-03-29T12:36:49;1.88;;;0.73;;
67544;SDS011;54380;47.770;11.150;2024-03-29T12:39:14;2.05;;;0.80;;
67544;SDS011;54380;47.770;11.150;2024-03-29T12:41:42;1.90;;;0.70;;
67544;SDS011;54380;47.770;11.150;2024-03-29T12:44:09;1.10;;;0.20;;
67544;SDS011;54380;47.770;11.150;2024-03-29T12:46:35;4.50;;;0.50;;
67544;SDS011;54380;47.770;11.150;2024-03-29T12:49:02;2.47;;;0.70;;
67544;SDS011;54380;47.770;11.150;2024-03-29T12:51:29;1.85;;;0.77;;
67544;SDS011;54380;47.770;11.150;2024-03-29T12:53:55;1.52;;;0.22;;
67544;SDS011;54380;47.770;11.150;2024-03-29T12:56:25;1.85;;;0.50;;
67544;SDS011;54380;47.770;11.150;2024-03-29T12:58:51;1.70;;;0.52;;
67544;SDS011;54380;47.770;11.150;2024-03-29T13:01:17;1.67;;;0.60;;
67544;SDS011;54380;47.770;11.150;2024-03-29T13:03:43;1.75;;;0.60;;
67544;SDS011;54380;47.770;11.150;2024-03-29T13:06:09;1.65;;;0.50;;
67544;SDS011;54380;47.770;11.150;2024-03-29T13:08:36;1.27;;;0.40;;
67544;SDS011;54380;47.770;11.150;2024-03-29T13:11:03;2.00;;;0.73;;
67544;SDS011;54380;47.770;11.150;2024-03-29T13:13:29;2.10;;;0.65;;
67544;SDS011;54380;47.770;11.150;2024-03-29T13:15:55;1.77;;;0.60;;
67544;SDS011;54380;47.770;11.150;2024-03-29T13:18:20;1.75;;;0.40;;
67544;SDS011;54380;47.770;11.150;2024-03-29T13:20:46;2.75;;;1.02;;
67544;SDS011;54380;47.770;11.150;2024-03-29T13:23:12;3.03;;;1.02;;
67544;SDS011;54380;47.770;11.150;2024-03-29T13:25:40;1.83;;;0.63;;
67544;SDS011;54380;47.770;11.150;2024-03-29T13:28:06;1.88;;;0.70;;
67544;SDS011;54380;47.770;11.150;2024-03-29T13:30:32;1.65;;;0.52;;
67544;SDS011;54380;47.770;11.150;2024-03-29T13:32:58;3.28;;;0.60;;
67544;SDS011;54380;47.770;11.150;2024-03-29T13:35:24;2.22;;;0.93;;
67544;SDS011;54380;47.770;11.150;2024-03-29T13:37:50;3.38;;;0.85;;
67544;SDS011;54380;47.770;11.150;2024-03-29T13:40:21;2.10;;;0.50;;
67544;SDS011;54380;47.770;11.150;2024-03-29T13:42:49;2.78;;;1.75;;
67544;SDS011;54380;47.770;11.150;2024-03-29T13:45:14;2.15;;;0.40;;
67544;SDS011;54380;47.770;11.150;2024-03-29T13:47:41;2.17;;;0.77;;
67544;SDS011;54380;47.770;11.150;2024-03-29T13:50:08;0.90;;;0.30;;
67544;SDS011;54380;47.770;11.150;2024-03-29T13:52:35;2.15;;;0.73;;
67544;SDS011;54380;47.770;11.150;2024-03-29T13:55:01;1.92;;;0.40;;
67544;SDS011;54380;47.770;11.150;2024-03-29T13:57:29;1.38;;;0.40;;
67544;SDS011;54380;47.770;11.150;2024-03-29T13:59:57;2.08;;;0.50;;
67544;SDS011;54380;47.770;11.150;2024-03-29T14:02:24;1.98;;;0.40;;
67544;SDS011;54380;47.770;11.150;2024-03-29T14:04:51;1.70;;;0.60;;
67544;SDS011;54380;47.770;11.150;2024-03-29T14:07:17;1.90;;;0.68;;
67544;SDS011;54380;47.770;11.150;2024-03-29T14:09:43;1.45;;;0.57;;
67544;SDS011;54380;47.770;11.150;2024-03-29T14:12:09;2.33;;;0.77;;
67544;SDS011;54380;47.770;11.150;2024-03-29T14:14:35;5.30;;;0.70;;
67544;SDS011;54380;47.770;11.150;2024-03-29T14:17:03;1.90;;;0.75;;
67544;SDS011;54380;47.770;11.150;2024-03-29T14:19:29;1.45;;;0.50;;
67544;SDS011;54380;47.770;11.150;2024-03-29T14:21:55;1.42;;;0.50;;
67544;SDS011;54380;47.770;11.150;2024-03-29T14:24:21;1.45;;;0.30;;
67544;SDS011;54380;47.770;11.150;2024-03-29T14:26:50;2.63;;;0.63;;
67544;SDS011;54380;47.770;11.150;2024-03-29T14:29:15;1.92;;;0.43;;
67544;SDS011;54380;47.770;11.150;2024-03-29T14:31:43;1.13;;;0.20;;
67544;SDS011;54380;47.770;11.150;2024-03-29T14:34:11;2.10;;;0.70;;